Time;durP1;ratioP1;P1;durP2;ratioP2;P2;SDS_P1;SDS_P2;PMS_P1;PMS_P2;Temp;Humidity;BMP_temperature;BMP_pressure;BME280_temperature;BME280_humidity;BME280_pressure;Samples;Min_cycle;Max_cycle;Signal;HPM_P1;HPM_P2
2024/01/11 00:02:19;;;;;;;33.45;21.63;;;-7.30;99.90;;;;;;5022295;28;20204;-77
2024/01/11 00:04:46;;;;;;;31.00;20.05;;;-7.40;99.90;;;;;;4997407;28;20263;-82
2024/01/11 00:07:13;;;;;;;39.30;21.35;;;-7.60;99.90;;;;;;4986149;28;20296;-80
2024/01/11 00:09:41;;;;;;;31.35;20.35;;;-7.70;99.90;;;;;;4985627;28;20683;-81
2024/01/11 00:12:09;;;;;;;30.92;19.10;;;-7.80;99.90;;;;;;4989892;28;20205;-80
2024/01/11 00:14:36;;;;;;;32.20;20.15;;;-7.90;99.90;;;;;;4990548;28;20277;-78
2024/01/11 00:17:05;;;;;;;43.38;22.65;;;-7.90;99.90;;;;;;4984401;28;20267;-81
2024/01/11 00:19:32;;;;;;;29.15;19.98;;;-8.00;99.90;;;;;;4996319;28;20238;-79
2024/01/11 00:21:59;;;;;;;36.38;21.95;;;-8.10;99.90;;;;;;4992213;28;20754;-78
2024/01/11 00:24:26;;;;;;;37.60;22.30;;;-8.10;99.90;;;;;;4992889;28;20258;-79
2024/01/11 00:26:53;;;;;;;43.50;24.52;;;-8.10;99.90;;;;;;5010323;28;20216;-79
2024/01/11 00:29:19;;;;;;;43.13;24.05;;;-8.10;99.90;;;;;;5002781;28;20206;-82
2024/01/11 00:31:46;;;;;;;32.42;21.65;;;-8.20;99.90;;;;;;4997564;28;20199;-80
2024/01/11 00:34:15;;;;;;;39.50;23.25;;;-8.20;99.90;;;;;;5002173;28;20263;-79
2024/01/11 00:36:41;;;;;;;33.25;20.65;;;-8.30;99.90;;;;;;5026466;28;20249;-78
2024/01/11 00:39:08;;;;;;;43.47;20.10;;;-8.30;99.90;;;;;;5015197;28;20207;-79
2024/01/11 00:41:43;;;;;;;30.65;17.67;;;-8.40;99.90;;;;;;5030858;28;20477;-81
2024/01/11 00:44:10;;;;;;;30.52;19.60;;;-8.40;99.90;;;;;;5007625;28;23125;-79
2024/01/11 00:46:38;;;;;;;34.45;18.50;;;-8.40;99.90;;;;;;4990319;28;20208;-79
2024/01/11 00:49:05;;;;;;;32.45;18.70;;;-8.40;99.90;;;;;;4993588;28;20200;-80
2024/01/11 00:51:33;;;;;;;33.92;19.02;;;-8.40;99.90;;;;;;4999309;28;20257;-81
2024/01/11 00:54:00;;;;;;;33.00;17.60;;;-8.50;99.90;;;;;;5018990;28;20803;-82
2024/01/11 00:56:27;;;;;;;30.98;17.70;;;-8.50;99.90;;;;;;5005866;28;20347;-81
2024/01/11 00:58:54;;;;;;;30.55;19.42;;;-8.40;99.90;;;;;;4997411;28;20269;-79
2024/01/11 01:01:21;;;;;;;30.77;16.88;;;-8.30;99.90;;;;;;4994600;28;20224;-79
2024/01/11 01:03:48;;;;;;;31.13;18.17;;;-8.30;99.90;;;;;;5004949;28;20223;-80
2024/01/11 01:06:15;;;;;;;31.90;17.42;;;-8.30;99.90;;;;;;5014497;28;20958;-79
2024/01/11 01:08:43;;;;;;;40.08;18.83;;;-8.30;99.90;;;;;;5005702;28;20208;-78
2024/01/11 01:11:14;;;;;;;34.00;19.20;;;-8.30;99.90;;;;;;5019160;28;20295;-83
2024/01/11 01:13:44;;;;;;;33.97;18.23;;;-8.40;99.90;;;;;;5005141;28;20209;-82
2024/01/11 01:16:16;;;;;;;26.67;17.35;;;-8.30;99.90;;;;;;5006009;28;20252;-80
2024/01/11 01:18:46;;;;;;;29.27;17.52;;;-8.30;99.90;;;;;;5042992;28;20204;-80
2024/01/11 01:21:15;;;;;;;33.35;18.75;;;-8.30;99.90;;;;;;5002150;28;20199;-81
2024/01/11 01:23:48;;;;;;;36.58;19.02;;;-8.30;99.90;;;;;;5049153;28;20207;-83
2024/01/11 01:26:15;;;;;;;34.10;18.83;;;-8.20;99.90;;;;;;4999906;28;20224;-80
2024/01/11 01:28:41;;;;;;;30.85;18.52;;;-8.20;99.90;;;;;;5043665;28;20235;-78
2024/01/11 01:31:09;;;;;;;30.33;18.73;;;-8.20;99.90;;;;;;4997691;28;20204;-77
2024/01/11 01:33:36;;;;;;;32.25;17.50;;;-8.20;99.90;;;;;;4996346;28;20280;-79
2024/01/11 01:36:03;;;;;;;34.53;19.70;;;-8.20;99.90;;;;;;4998690;28;20204;-79
2024/01/11 01:38:30;;;;;;;31.70;18.02;;;-8.10;99.90;;;;;;5015342;28;20873;-78
2024/01/11 01:40:59;;;;;;;31.45;18.42;;;-8.10;99.90;;;;;;5008020;28;20286;-80
2024/01/11 01:43:26;;;;;;;28.02;16.90;;;-8.10;99.90;;;;;;5014336;28;20282;-77
2024/01/11 01:45:53;;;;;;;36.10;19.33;;;-8.10;99.90;;;;;;4998999;28;20223;-78
2024/01/11 01:48:21;;;;;;;30.08;18.50;;;-8.10;99.90;;;;;;5023463;28;20200;-77
2024/01/11 01:50:50;;;;;;;30.25;19.90;;;-8.20;99.90;;;;;;5028200;28;20269;-80
2024/01/11 01:53:18;;;;;;;35.92;19.77;;;-8.30;99.90;;;;;;5008933;28;20201;-77
2024/01/11 01:55:45;;;;;;;29.80;18.08;;;-8.40;99.90;;;;;;5033893;28;20727;-81
2024/01/11 01:58:14;;;;;;;33.58;19.27;;;-8.40;99.90;;;;;;5002335;28;20283;-77
2024/01/11 02:00:41;;;;;;;31.90;18.35;;;-8.50;99.90;;;;;;5015173;28;20203;-77
2024/01/11 02:03:10;;;;;;;32.83;15.80;;;-8.40;99.90;;;;;;5003413;28;20291;-78
2024/01/11 02:05:40;;;;;;;40.78;20.65;;;-8.50;99.90;;;;;;5020463;28;20225;-78
2024/01/11 02:08:09;;;;;;;28.90;16.67;;;-8.60;99.90;;;;;;5022296;28;20195;-77
2024/01/11 02:10:36;;;;;;;34.80;18.75;;;-8.60;99.90;;;;;;5018829;28;20236;-78
2024/01/11 02:13:03;;;;;;;31.38;18.50;;;-8.60;99.90;;;;;;5009624;28;20203;-78
2024/01/11 02:15:32;;;;;;;34.20;20.30;;;-8.70;99.90;;;;;;5032613;28;20778;-81
2024/01/11 02:17:59;;;;;;;36.25;17.98;;;-8.80;99.90;;;;;;5047617;28;20262;-78
2024/01/11 02:20:26;;;;;;;28.52;17.98;;;-8.70;99.90;;;;;;5065132;28;20239;-80
2024/01/11 02:22:59;;;;;;;31.98;16.85;;;-8.70;99.90;;;;;;5021539;28;20264;-79
2024/01/11 02:25:27;;;;;;;33.50;21.30;;;-8.80;99.90;;;;;;5085326;28;20224;-79
2024/01/11 02:27:54;;;;;;;31.70;19.77;;;-8.80;99.90;;;;;;5035985;28;20269;-78
2024/01/11 02:30:21;;;;;;;56.00;28.98;;;-8.80;99.90;;;;;;5055302;28;20202;-80
2024/01/11 02:32:50;;;;;;;41.78;21.75;;;-8.80;99.90;;;;;;5018055;28;20203;-78
2024/01/11 02:35:17;;;;;;;32.65;19.67;;;-8.80;99.90;;;;;;5006346;28;20207;-77
2024/01/11 02:37:45;;;;;;;31.95;19.35;;;-8.80;99.90;;;;;;5021558;28;20203;-81
2024/01/11 02:40:14;;;;;;;31.77;19.20;;;-8.70;99.90;;;;;;5015914;28;20204;-78
2024/01/11 02:42:43;;;;;;;27.00;16.90;;;-8.70;99.90;;;;;;5007342;28;20231;-81
2024/01/11 02:45:12;;;;;;;42.92;20.40;;;-8.60;99.90;;;;;;5021565;28;20246;-82
2024/01/11 02:47:39;;;;;;;30.10;18.33;;;-8.50;99.90;;;;;;5002429;28;20212;-78
2024/01/11 02:50:07;;;;;;;33.63;17.58;;;-8.50;99.90;;;;;;5008141;28;20615;-80
2024/01/11 02:52:34;;;;;;;31.10;17.48;;;-8.60;99.90;;;;;;5002455;28;20282;-78
2024/01/11 02:55:01;;;;;;;37.80;19.40;;;-8.50;99.90;;;;;;5014333;28;20288;-78
2024/01/11 02:57:28;;;;;;;27.75;17.77;;;-8.50;99.90;;;;;;5004617;28;20215;-78
2024/01/11 02:59:57;;;;;;;34.00;17.65;;;-8.40;99.90;;;;;;5000636;28;20238;-81
2024/01/11 03:02:24;;;;;;;25.58;18.35;;;-8.30;99.90;;;;;;5024161;28;20654;-82
2024/01/11 03:04:51;;;;;;;24.60;18.63;;;-8.10;99.90;;;;;;5000384;28;20255;-79
2024/01/11 03:07:18;;;;;;;31.20;18.42;;;-7.90;99.90;;;;;;5004227;28;20199;-81
2024/01/11 03:09:45;;;;;;;34.25;17.95;;;-7.70;99.90;;;;;;5026933;28;20282;-78
2024/01/11 03:12:12;;;;;;;33.08;19.90;;;-7.80;99.90;;;;;;5041527;28;20192;-78
2024/01/11 03:14:38;;;;;;;32.90;20.38;;;-7.90;99.90;;;;;;5025719;28;20210;-81
2024/01/11 03:17:07;;;;;;;31.30;17.63;;;-7.90;99.90;;;;;;5012186;28;20255;-78
2024/01/11 03:19:34;;;;;;;34.30;18.75;;;-8.00;99.90;;;;;;5012962;28;20206;-77
2024/01/11 03:22:06;;;;;;;34.00;19.83;;;-8.10;99.90;;;;;;5003202;28;20696;-78
2024/01/11 03:24:32;;;;;;;33.63;19.40;;;-8.10;99.90;;;;;;5003797;28;20204;-80
2024/01/11 03:26:59;;;;;;;31.83;18.90;;;-8.20;99.90;;;;;;5030776;28;20644;-78
2024/01/11 03:29:26;;;;;;;29.85;18.13;;;-8.30;99.90;;;;;;5008757;28;20215;-81
2024/01/11 03:31:53;;;;;;;30.90;19.48;;;-8.50;99.90;;;;;;5001093;28;20234;-82
2024/01/11 03:34:22;;;;;;;27.83;17.38;;;-8.60;99.90;;;;;;5010519;28;20752;-79
2024/01/11 03:36:48;;;;;;;34.25;19.63;;;-8.70;99.90;;;;;;5002198;28;20301;-79
2024/01/11 03:39:15;;;;;;;27.48;17.08;;;-8.80;99.90;;;;;;5004917;28;20194;-79
2024/01/11 03:41:44;;;;;;;29.88;17.52;;;-8.80;99.90;;;;;;5016844;28;20684;-81
2024/01/11 03:44:11;;;;;;;37.05;17.42;;;-8.80;99.90;;;;;;5019908;28;21014;-79
2024/01/11 03:46:38;;;;;;;27.65;17.92;;;-8.90;99.90;;;;;;5027659;28;20318;-81
2024/01/11 03:49:07;;;;;;;32.83;18.95;;;-9.00;99.90;;;;;;5005247;28;20253;-78
2024/01/11 03:51:35;;;;;;;30.98;18.55;;;-9.00;99.90;;;;;;4989651;28;20220;-82
2024/01/11 03:54:02;;;;;;;38.53;17.88;;;-9.00;99.90;;;;;;5023393;28;20738;-78
2024/01/11 03:56:30;;;;;;;33.22;16.90;;;-9.10;99.90;;;;;;5003203;28;20270;-78
2024/01/11 03:58:57;;;;;;;27.42;17.45;;;-9.10;99.90;;;;;;5019867;28;20595;-78
2024/01/11 04:01:24;;;;;;;32.08;18.65;;;-9.20;99.90;;;;;;5005236;28;20282;-78
2024/01/11 04:03:51;;;;;;;32.67;18.60;;;-9.20;99.90;;;;;;5004035;28;20744;-81
2024/01/11 04:06:22;;;;;;;31.77;16.88;;;-9.20;99.90;;;;;;5002764;28;20223;-78
2024/01/11 04:08:51;;;;;;;23.65;16.13;;;-9.20;99.90;;;;;;5011010;28;20218;-81
2024/01/11 04:11:18;;;;;;;32.63;18.17;;;-9.30;99.90;;;;;;5004524;28;20252;-78
2024/01/11 04:13:45;;;;;;;31.02;19.10;;;-9.20;99.90;;;;;;4999354;28;20207;-79
2024/01/11 04:16:12;;;;;;;26.75;17.13;;;-9.20;99.90;;;;;;5007119;28;20872;-78
2024/01/11 04:18:39;;;;;;;36.13;18.92;;;-9.10;99.90;;;;;;5026414;28;20206;-78
2024/01/11 04:21:06;;;;;;;28.55;18.63;;;-9.10;99.90;;;;;;4997461;28;20205;-78
2024/01/11 04:23:33;;;;;;;29.67;16.58;;;-9.00;99.90;;;;;;5045246;28;20235;-79
2024/01/11 04:26:01;;;;;;;24.23;16.00;;;-9.10;99.90;;;;;;5002836;28;20394;-80
2024/01/11 04:28:29;;;;;;;24.05;15.90;;;-9.10;99.90;;;;;;5004232;28;20196;-78
2024/01/11 04:30:55;;;;;;;27.92;16.08;;;-9.10;99.90;;;;;;5005892;28;20203;-78
2024/01/11 04:33:21;;;;;;;29.42;17.58;;;-9.10;99.90;;;;;;5006806;28;20290;-78
2024/01/11 04:35:48;;;;;;;31.03;16.50;;;-9.00;99.90;;;;;;5058400;28;20744;-78
2024/01/11 04:38:15;;;;;;;30.05;19.75;;;-9.00;99.90;;;;;;5001094;28;20531;-78
2024/01/11 04:40:42;;;;;;;29.98;20.15;;;-9.10;99.90;;;;;;5005315;28;20284;-78
2024/01/11 04:43:11;;;;;;;33.40;19.02;;;-9.10;99.90;;;;;;4997626;28;20214;-80
2024/01/11 04:45:38;;;;;;;24.00;15.63;;;-9.00;99.90;;;;;;5000908;28;20230;-78
2024/01/11 04:48:05;;;;;;;29.73;16.50;;;-9.00;99.90;;;;;;5005686;28;20724;-80
2024/01/11 04:50:32;;;;;;;34.42;18.75;;;-9.00;99.90;;;;;;4993094;28;20729;-79
2024/01/11 04:52:59;;;;;;;22.83;16.98;;;-9.10;99.90;;;;;;5006460;28;20264;-80
2024/01/11 04:55:26;;;;;;;27.48;17.15;;;-9.10;99.90;;;;;;5003407;28;20273;-81
2024/01/11 04:57:53;;;;;;;32.22;19.50;;;-9.10;99.90;;;;;;5008447;28;20582;-80
2024/01/11 05:00:22;;;;;;;52.60;23.55;;;-9.20;99.90;;;;;;5002383;28;20206;-78
2024/01/11 05:02:49;;;;;;;34.67;17.88;;;-9.10;99.90;;;;;;5014108;28;20888;-77
2024/01/11 05:05:16;;;;;;;42.72;23.33;;;-9.10;99.90;;;;;;5009439;28;20207;-77
2024/01/11 05:07:43;;;;;;;38.35;23.42;;;-9.10;99.90;;;;;;5017005;28;20705;-78
2024/01/11 05:10:10;;;;;;;29.75;21.35;;;-9.20;99.90;;;;;;5003095;28;20203;-77
2024/01/11 05:12:38;;;;;;;54.05;18.05;;;-9.20;99.90;;;;;;5047060;28;20260;-77
2024/01/11 05:15:09;;;;;;;27.65;18.48;;;-9.30;99.90;;;;;;5019562;28;20245;-79
2024/01/11 05:17:37;;;;;;;29.40;18.65;;;-9.30;99.90;;;;;;5000969;28;20269;-79
2024/01/11 05:20:05;;;;;;;32.38;19.55;;;-9.30;99.90;;;;;;5006602;28;20198;-79
2024/01/11 05:22:32;;;;;;;28.13;18.20;;;-9.40;99.90;;;;;;5003573;28;20214;-79
2024/01/11 05:24:59;;;;;;;29.42;18.80;;;-9.40;99.90;;;;;;5022158;28;20199;-78
2024/01/11 05:27:26;;;;;;;28.73;15.32;;;-9.30;99.90;;;;;;5046828;28;20260;-79
2024/01/11 05:29:53;;;;;;;25.50;17.02;;;-9.40;99.90;;;;;;5037191;28;20348;-80
2024/01/11 05:32:20;;;;;;;30.80;18.60;;;-9.40;99.90;;;;;;5038914;28;20240;-79
2024/01/11 05:34:48;;;;;;;26.52;16.95;;;-9.40;99.90;;;;;;5069301;28;20580;-78
2024/01/11 05:37:15;;;;;;;30.80;17.55;;;-9.30;99.90;;;;;;5038701;28;20741;-78
2024/01/11 05:39:42;;;;;;;29.88;18.85;;;-9.30;99.90;;;;;;5022675;28;20210;-78
2024/01/11 05:42:09;;;;;;;36.97;20.05;;;-9.20;99.90;;;;;;5014970;28;20259;-79
2024/01/11 05:44:36;;;;;;;31.83;18.50;;;-9.30;99.90;;;;;;5001402;28;20203;-78
2024/01/11 05:47:03;;;;;;;25.10;15.88;;;-9.30;99.90;;;;;;5006428;28;20717;-78
2024/01/11 05:49:30;;;;;;;30.30;15.85;;;-9.30;99.90;;;;;;5001324;28;20256;-79
2024/01/11 05:51:59;;;;;;;23.48;15.43;;;-9.30;99.90;;;;;;5021265;28;20210;-80
2024/01/11 05:54:28;;;;;;;35.15;20.40;;;-9.40;99.90;;;;;;5002665;28;20252;-81
2024/01/11 05:56:58;;;;;;;28.85;14.35;;;-9.40;99.90;;;;;;5010337;28;20329;-80
2024/01/11 05:59:25;;;;;;;31.23;18.15;;;-9.40;99.90;;;;;;5020501;28;20268;-79
2024/01/11 06:01:52;;;;;;;34.70;18.85;;;-9.50;99.90;;;;;;5008593;28;20388;-79
2024/01/11 06:04:19;;;;;;;29.00;16.75;;;-9.50;99.90;;;;;;5019441;28;20688;-80
2024/01/11 06:06:45;;;;;;;34.00;17.85;;;-9.40;99.90;;;;;;5001290;28;20261;-79
2024/01/11 06:09:14;;;;;;;38.33;17.50;;;-9.40;99.90;;;;;;5008649;28;20301;-78
2024/01/11 06:11:41;;;;;;;35.50;16.50;;;-9.40;99.90;;;;;;5016259;28;20262;-79
2024/01/11 06:14:08;;;;;;;28.25;18.40;;;-9.40;99.90;;;;;;5055171;28;20227;-78
2024/01/11 06:16:35;;;;;;;24.73;15.75;;;-9.40;99.90;;;;;;5042685;28;20314;-78
2024/01/11 06:19:02;;;;;;;26.10;17.83;;;-9.50;99.90;;;;;;5030512;28;20767;-81
2024/01/11 06:21:29;;;;;;;29.05;17.40;;;-9.40;99.90;;;;;;5041786;28;20215;-78
2024/01/11 06:23:56;;;;;;;30.08;17.80;;;-9.40;99.90;;;;;;5017877;28;20230;-81
2024/01/11 06:26:24;;;;;;;29.30;18.08;;;-9.30;99.90;;;;;;5006637;28;20222;-80
2024/01/11 06:28:51;;;;;;;32.30;18.45;;;-9.30;99.90;;;;;;5015074;28;20206;-81
2024/01/11 06:31:18;;;;;;;29.95;17.58;;;-9.30;99.90;;;;;;5008293;28;20234;-78
2024/01/11 06:33:45;;;;;;;32.20;18.38;;;-9.30;99.90;;;;;;5058189;28;20338;-79
2024/01/11 06:36:12;;;;;;;30.90;18.75;;;-9.40;99.90;;;;;;5033545;28;20204;-79
2024/01/11 06:38:39;;;;;;;33.38;20.02;;;-9.40;99.90;;;;;;5024786;28;20229;-79
2024/01/11 06:41:06;;;;;;;28.90;19.70;;;-9.40;99.90;;;;;;5064594;28;20287;-80
2024/01/11 06:43:34;;;;;;;27.92;17.85;;;-9.50;99.90;;;;;;5081469;28;20231;-78
2024/01/11 06:46:04;;;;;;;34.20;19.85;;;-9.50;99.90;;;;;;5018245;28;20229;-77
2024/01/11 06:48:31;;;;;;;36.40;18.73;;;-9.50;99.90;;;;;;4998122;28;20711;-79
2024/01/11 06:50:58;;;;;;;35.97;17.90;;;-9.50;99.90;;;;;;5012693;28;20219;-82
2024/01/11 06:53:25;;;;;;;30.40;18.88;;;-9.50;99.90;;;;;;5003272;28;20239;-82
2024/01/11 06:55:53;;;;;;;46.42;22.55;;;-9.40;99.90;;;;;;5020403;28;20208;-80
2024/01/11 06:58:22;;;;;;;37.40;20.52;;;-9.20;99.90;;;;;;5029509;28;20200;-80
2024/01/11 07:00:50;;;;;;;42.35;20.42;;;-9.00;99.90;;;;;;5007882;28;20200;-79
2024/01/11 07:03:18;;;;;;;33.30;18.50;;;-8.80;99.90;;;;;;5037992;28;20679;-78
2024/01/11 07:05:45;;;;;;;40.97;23.90;;;-8.60;99.90;;;;;;5032219;28;20798;-80
2024/01/11 07:08:12;;;;;;;36.13;16.88;;;-8.50;99.90;;;;;;5003718;28;20224;-77
2024/01/11 07:10:39;;;;;;;45.42;22.60;;;-8.40;99.90;;;;;;5002101;28;20207;-77
2024/01/11 07:13:06;;;;;;;34.35;18.52;;;-8.40;99.90;;;;;;5026262;28;20664;-79
2024/01/11 07:15:33;;;;;;;39.42;23.00;;;-8.30;99.90;;;;;;5034496;28;20202;-77
2024/01/11 07:18:01;;;;;;;44.25;20.17;;;-8.30;99.90;;;;;;5083834;28;20377;-77
2024/01/11 07:20:28;;;;;;;44.63;21.70;;;-8.40;99.90;;;;;;5008506;28;20234;-81
2024/01/11 07:22:55;;;;;;;36.22;18.20;;;-8.40;99.90;;;;;;5021698;28;20234;-75
2024/01/11 07:25:22;;;;;;;41.50;20.95;;;-8.40;99.90;;;;;;5027364;28;20203;-77
2024/01/11 07:27:50;;;;;;;33.60;23.50;;;-8.30;99.90;;;;;;5030376;28;20227;-77
2024/01/11 07:30:19;;;;;;;33.67;19.40;;;-8.30;99.90;;;;;;5005709;28;20203;-79
2024/01/11 07:32:46;;;;;;;40.75;21.60;;;-8.30;99.90;;;;;;5005592;28;20245;-77
2024/01/11 07:35:15;;;;;;;45.50;20.20;;;-8.20;99.90;;;;;;5049102;27;20260;-79
2024/01/11 07:37:42;;;;;;;38.33;23.15;;;-8.10;99.90;;;;;;5019624;28;20196;-78
2024/01/11 07:40:10;;;;;;;32.88;20.00;;;-8.00;99.90;;;;;;5095384;28;20219;-80
2024/01/11 07:42:39;;;;;;;27.42;18.98;;;-7.90;99.90;;;;;;5016418;28;20301;-78
2024/01/11 07:45:07;;;;;;;44.75;23.58;;;-7.90;99.90;;;;;;5036348;28;20210;-77
2024/01/11 07:47:34;;;;;;;34.13;19.50;;;-7.80;99.90;;;;;;5010180;28;20254;-80
2024/01/11 07:50:01;;;;;;;37.97;23.85;;;-7.70;99.90;;;;;;5029518;28;20211;-78
2024/01/11 07:52:29;;;;;;;43.17;22.92;;;-7.60;99.90;;;;;;5010211;28;20207;-78
2024/01/11 07:54:57;;;;;;;89.78;51.03;;;-7.40;99.90;;;;;;5002143;28;21248;-77
2024/01/11 07:57:24;;;;;;;75.00;39.05;;;-7.30;99.90;;;;;;5006206;28;20200;-78
2024/01/11 07:59:51;;;;;;;46.92;29.52;;;-7.20;99.90;;;;;;5015184;28;20211;-78
2024/01/11 08:02:18;;;;;;;51.10;30.10;;;-7.20;99.90;;;;;;5011622;28;20219;-80
2024/01/11 08:04:45;;;;;;;114.32;56.50;;;-7.10;99.90;;;;;;5022225;28;20541;-78
2024/01/11 08:07:12;;;;;;;44.15;27.80;;;-7.00;99.90;;;;;;5002141;28;20279;-77
2024/01/11 08:09:45;;;;;;;48.55;32.42;;;-7.00;99.90;;;;;;5008484;28;20284;-78
2024/01/11 08:12:13;;;;;;;45.47;24.25;;;-6.90;99.90;;;;;;5008656;28;20215;-80
2024/01/11 08:14:41;;;;;;;62.15;38.20;;;-6.90;99.90;;;;;;5006853;28;20203;-76
2024/01/11 08:17:09;;;;;;;64.25;35.72;;;-6.80;99.90;;;;;;5005301;28;20234;-77
2024/01/11 08:19:36;;;;;;;47.55;26.13;;;-6.90;99.90;;;;;;5007694;28;20210;-79
2024/01/11 08:22:03;;;;;;;49.47;24.52;;;-6.80;99.90;;;;;;5007949;28;20207;-77
2024/01/11 08:24:30;;;;;;;46.63;28.85;;;-6.80;99.90;;;;;;5044419;28;20242;-77
2024/01/11 08:26:58;;;;;;;51.95;29.55;;;-6.80;99.90;;;;;;5024146;28;20231;-79
2024/01/11 08:29:26;;;;;;;48.63;27.92;;;-6.70;99.90;;;;;;5036549;28;20675;-77
2024/01/11 08:31:54;;;;;;;46.58;25.52;;;-6.60;99.90;;;;;;5040697;28;20208;-79
2024/01/11 08:34:21;;;;;;;41.58;24.60;;;-6.50;99.90;;;;;;5046664;28;20230;-77
2024/01/11 08:36:48;;;;;;;34.20;22.63;;;-6.30;99.90;;;;;;4997194;28;20849;-79
2024/01/11 08:39:16;;;;;;;44.08;25.17;;;-6.30;99.90;;;;;;5002982;28;20299;-78
2024/01/11 08:41:43;;;;;;;40.65;23.98;;;-6.10;99.90;;;;;;5003523;28;20282;-77
2024/01/11 08:44:11;;;;;;;42.20;25.77;;;-6.00;99.90;;;;;;5007684;28;20823;-78
2024/01/11 08:46:38;;;;;;;47.35;29.52;;;-5.80;99.90;;;;;;5004656;28;20766;-77
2024/01/11 08:49:05;;;;;;;52.25;33.17;;;-5.80;99.90;;;;;;5013065;28;20247;-70
2024/01/11 08:51:33;;;;;;;55.30;28.98;;;-5.70;99.90;;;;;;5002212;28;20231;-78
2024/01/11 08:54:00;;;;;;;55.83;31.80;;;-5.60;99.90;;;;;;5003826;28;20290;-76
2024/01/11 08:56:27;;;;;;;56.45;32.65;;;-5.40;99.90;;;;;;5002675;28;20667;-80
2024/01/11 08:58:55;;;;;;;49.67;31.13;;;-5.30;99.90;;;;;;4999337;28;20219;-77
2024/01/11 09:01:24;;;;;;;56.53;33.75;;;-5.30;99.90;;;;;;5004605;28;20732;-77
2024/01/11 09:03:51;;;;;;;48.97;30.00;;;-5.20;99.90;;;;;;5014107;28;20694;-86
2024/01/11 09:06:19;;;;;;;46.80;29.45;;;-5.10;99.90;;;;;;5000639;28;20235;-79
2024/01/11 09:08:45;;;;;;;43.63;26.25;;;-5.00;99.90;;;;;;5006360;28;20630;-77
2024/01/11 09:11:12;;;;;;;52.90;30.30;;;-5.00;99.90;;;;;;4997147;28;20222;-72
2024/01/11 09:13:40;;;;;;;46.80;27.90;;;-4.80;99.90;;;;;;5004614;28;20676;-76
2024/01/11 09:16:09;;;;;;;49.13;28.17;;;-4.80;99.90;;;;;;5026825;28;20827;-78
2024/01/11 09:18:37;;;;;;;42.40;26.80;;;-4.80;99.90;;;;;;5044312;28;20207;-81
2024/01/11 09:21:05;;;;;;;43.90;27.85;;;-4.80;99.90;;;;;;5027097;28;20265;-85
2024/01/11 09:23:31;;;;;;;37.53;24.67;;;-4.80;99.90;;;;;;5002678;28;20264;-77
2024/01/11 09:25:58;;;;;;;52.10;28.52;;;-4.80;99.90;;;;;;5030629;28;20314;-74
2024/01/11 09:28:25;;;;;;;38.88;24.75;;;-4.60;99.90;;;;;;5014176;28;20259;-75
2024/01/11 09:30:52;;;;;;;47.97;27.98;;;-4.60;99.90;;;;;;5017934;28;20237;-81
2024/01/11 09:33:19;;;;;;;40.38;23.17;;;-4.50;99.90;;;;;;5012464;28;20823;-81
2024/01/11 09:35:47;;;;;;;42.20;25.90;;;-4.60;99.90;;;;;;5021139;28;20624;-76
2024/01/11 09:38:14;;;;;;;42.92;27.02;;;-4.40;99.90;;;;;;5027796;28;20264;-77
2024/01/11 09:40:41;;;;;;;36.63;22.33;;;-4.40;99.90;;;;;;5012181;28;20851;-79
2024/01/11 09:43:11;;;;;;;41.75;24.60;;;-4.50;99.90;;;;;;5034158;28;20799;-72
2024/01/11 09:45:38;;;;;;;40.67;27.55;;;-4.50;99.90;;;;;;5032278;28;20212;-78
2024/01/11 09:48:09;;;;;;;40.35;25.40;;;-4.40;99.90;;;;;;5043551;28;20867;-74
2024/01/11 09:50:37;;;;;;;51.00;27.35;;;-4.30;99.90;;;;;;5011209;28;20716;-80
2024/01/11 09:53:07;;;;;;;43.42;25.20;;;-4.10;99.90;;;;;;5009073;28;20200;-78
2024/01/11 09:55:36;;;;;;;44.85;25.83;;;-4.00;99.90;;;;;;5029139;28;20198;-76
2024/01/11 09:58:04;;;;;;;39.70;22.92;;;-4.00;99.90;;;;;;5022796;28;20292;-75
2024/01/11 10:00:32;;;;;;;42.40;25.00;;;-4.00;99.90;;;;;;5031134;28;20231;-75
2024/01/11 10:02:59;;;;;;;44.38;24.50;;;-4.00;99.90;;;;;;5052480;28;20297;-75
2024/01/11 10:05:28;;;;;;;38.75;22.98;;;-4.30;99.90;;;;;;5018258;28;20601;-74
2024/01/11 10:07:54;;;;;;;47.28;26.58;;;-4.00;99.90;;;;;;5035896;28;20260;-75
2024/01/11 10:10:23;;;;;;;44.30;24.67;;;-4.10;99.90;;;;;;5012321;28;20244;-75
2024/01/11 10:12:50;;;;;;;36.10;23.42;;;-4.00;99.90;;;;;;5053029;28;20829;-77
2024/01/11 10:15:17;;;;;;;39.88;22.80;;;-3.80;99.90;;;;;;5036863;28;20192;-77
2024/01/11 10:17:45;;;;;;;44.33;27.23;;;-3.60;99.90;;;;;;5000249;28;20237;-76
2024/01/11 10:20:13;;;;;;;39.63;23.70;;;-3.50;99.90;;;;;;5005108;28;20201;-81
2024/01/11 10:22:40;;;;;;;41.38;26.67;;;-3.50;99.90;;;;;;5022221;28;20200;-76
2024/01/11 10:25:12;;;;;;;41.13;23.08;;;-3.40;99.90;;;;;;5008915;28;20298;-75
2024/01/11 10:27:43;;;;;;;36.55;24.75;;;-3.50;99.90;;;;;;5066363;28;20315;-78
2024/01/11 10:30:12;;;;;;;38.38;23.60;;;-3.50;99.90;;;;;;5028139;27;20287;-80
2024/01/11 10:32:39;;;;;;;36.67;22.60;;;-3.50;99.90;;;;;;5021940;28;20196;-75
2024/01/11 10:35:07;;;;;;;34.78;21.98;;;-3.50;99.90;;;;;;5024328;28;21011;-78
2024/01/11 10:37:34;;;;;;;30.45;20.58;;;-3.50;99.90;;;;;;5011026;28;20937;-76
2024/01/11 10:40:09;;;;;;;31.80;19.13;;;-3.60;99.90;;;;;;5036470;28;20290;-78
2024/01/11 10:42:38;;;;;;;36.97;24.25;;;-3.60;99.90;;;;;;5044751;28;20213;-76
2024/01/11 10:45:16;;;;;;;36.25;22.65;;;-3.50;99.90;;;;;;5036903;28;20819;-77
2024/01/11 10:47:50;;;;;;;36.53;20.83;;;-3.40;99.90;;;;;;5044743;28;20783;-77
2024/01/11 10:50:19;;;;;;;33.95;21.65;;;-3.20;99.90;;;;;;5018161;28;20262;-76
2024/01/11 10:53:02;;;;;;;40.55;22.75;;;-3.10;99.90;;;;;;5048322;28;20206;-77
2024/01/11 10:55:31;;;;;;;36.67;21.52;;;-3.20;99.90;;;;;;5017436;28;20204;-76
2024/01/11 10:58:00;;;;;;;42.90;22.75;;;-3.20;99.90;;;;;;5002610;28;20231;-80
2024/01/11 11:00:29;;;;;;;31.20;20.77;;;-3.30;99.90;;;;;;5007582;28;20208;-78
2024/01/11 11:02:59;;;;;;;38.95;24.80;;;-3.30;99.90;;;;;;5006155;28;20290;-77
2024/01/11 11:05:28;;;;;;;36.50;21.95;;;-3.50;99.90;;;;;;5012852;28;20743;-76
2024/01/11 11:07:56;;;;;;;38.33;23.50;;;-3.50;99.90;;;;;;5003377;28;20320;-76
2024/01/11 11:10:25;;;;;;;34.85;21.33;;;-3.30;99.90;;;;;;5033659;28;20266;-79
2024/01/11 11:12:55;;;;;;;33.15;22.42;;;-3.10;99.90;;;;;;4993383;28;20213;-78
2024/01/11 11:15:23;;;;;;;31.38;22.48;;;-3.20;99.90;;;;;;5004499;28;20200;-76
2024/01/11 11:17:52;;;;;;;31.75;21.40;;;-3.10;99.90;;;;;;5010650;28;20333;-76
2024/01/11 11:20:20;;;;;;;36.83;23.50;;;-2.90;99.90;;;;;;5005163;28;20721;-76
2024/01/11 11:23:03;;;;;;;35.15;26.48;;;-3.00;99.90;;;;;;5000824;28;20211;-77
2024/01/11 11:25:31;;;;;;;30.65;20.88;;;-3.00;99.90;;;;;;5010365;28;20260;-76
2024/01/11 11:28:00;;;;;;;35.65;21.83;;;-3.00;99.90;;;;;;5011862;28;20290;-76
2024/01/11 11:30:28;;;;;;;38.63;20.73;;;-3.10;99.90;;;;;;5009852;28;20705;-76
2024/01/11 11:32:56;;;;;;;33.35;22.38;;;-3.00;99.90;;;;;;5015259;28;20300;-78
2024/01/11 11:35:25;;;;;;;33.35;20.38;;;-2.80;99.90;;;;;;5012676;28;20215;-77
2024/01/11 11:37:56;;;;;;;34.90;21.17;;;-2.80;99.90;;;;;;5009444;28;20338;-78
2024/01/11 11:40:33;;;;;;;37.40;23.27;;;-2.90;99.90;;;;;;5018037;28;20195;-77
2024/01/11 11:43:04;;;;;;;37.85;22.17;;;-2.80;99.90;;;;;;5014845;28;20295;-80
2024/01/11 11:45:32;;;;;;;38.88;23.08;;;-2.70;99.90;;;;;;5003422;28;20296;-76
2024/01/11 11:48:00;;;;;;;33.25;22.17;;;-2.70;99.90;;;;;;5004041;28;20260;-76
2024/01/11 11:50:28;;;;;;;37.65;22.55;;;-2.70;99.90;;;;;;5004209;28;20292;-77
2024/01/11 11:52:56;;;;;;;36.70;22.05;;;-2.60;99.90;;;;;;5013112;28;20231;-76
2024/01/11 11:55:25;;;;;;;39.70;24.30;;;-2.60;99.90;;;;;;5018001;28;20406;-78
2024/01/11 11:57:52;;;;;;;34.58;22.75;;;-2.50;99.90;;;;;;5001947;28;20717;-76
2024/01/11 12:00:20;;;;;;;36.83;24.10;;;-2.60;99.90;;;;;;5054153;28;20301;-76
2024/01/11 12:02:48;;;;;;;37.55;23.83;;;-2.60;99.90;;;;;;5029120;28;20203;-76
2024/01/11 12:05:19;;;;;;;40.70;23.02;;;-2.50;99.90;;;;;;5018807;28;20202;-76
2024/01/11 12:07:46;;;;;;;36.30;21.88;;;-2.50;99.90;;;;;;5004988;28;20232;-77
2024/01/11 12:10:13;;;;;;;34.72;20.77;;;-2.40;99.90;;;;;;5028225;28;20207;-75
2024/01/11 12:12:40;;;;;;;37.28;25.10;;;-2.60;99.90;;;;;;5033363;28;20254;-75
2024/01/11 12:15:09;;;;;;;43.00;23.05;;;-2.60;99.90;;;;;;5027425;28;20355;-77
2024/01/11 12:17:38;;;;;;;41.85;24.45;;;-2.60;99.90;;;;;;5047289;28;20232;-75
2024/01/11 12:20:07;;;;;;;33.90;22.55;;;-2.60;99.90;;;;;;5023675;28;20205;-78
2024/01/11 12:22:35;;;;;;;37.42;23.35;;;-2.70;99.90;;;;;;5052667;28;20731;-77
2024/01/11 12:25:03;;;;;;;38.65;22.65;;;-2.60;99.90;;;;;;5061717;28;20712;-75
2024/01/11 12:27:31;;;;;;;40.67;22.67;;;-2.60;99.90;;;;;;5005814;28;20206;-75
2024/01/11 12:29:58;;;;;;;34.70;21.13;;;-2.70;99.90;;;;;;5032528;28;20664;-75